Time;durP1;ratioP1;P1;durP2;ratioP2;P2;SDS_P1;SDS_P2;PMS_P1;PMS_P2;Temp;Humidity;BMP_temperature;BMP_pressure;BME280_temperature;BME280_humidity;BME280_pressure;Samples;Min_cycle;Max_cycle;Signal;HPM_P1;HPM_P2
2022/08/24 00:02:37;;;;;;;7.82;6.43;;;;;;;;;;10112613;29;20423;-89
2022/08/24 00:07:41;;;;;;;8.38;6.40;;;;;;;;;;10118800;29;20524;-89
2022/08/24 00:12:43;;;;;;;6.67;6.07;;;;;;;;;;10111076;29;20458;-89
2022/08/24 00:17:45;;;;;;;7.80;5.70;;;;;;;;;;10110180;29;20425;-90
2022/08/24 00:22:48;;;;;;;7.90;5.88;;;;;;;;;;10112329;29;20504;-90
2022/08/24 00:27:50;;;;;;;7.25;6.30;;;;;;;;;;10109669;29;20967;-89
2022/08/24 00:32:53;;;;;;;7.03;5.67;;;;;;;;;;10114847;29;20470;-90
2022/08/24 00:37:56;;;;;;;6.80;6.00;;;;;;;;;;10111474;29;20505;-89
2022/08/24 00:42:58;;;;;;;6.20;5.60;;;;;;;;;;10111400;29;20992;-90
2022/08/24 00:48:04;;;;;;;6.15;5.50;;;;;;;;;;10114325;29;20429;-90
2022/08/24 00:53:11;;;;;;;9.60;5.70;;;;;;;;;;10110708;29;20469;-88
2022/08/24 00:58:16;;;;;;;7.97;6.65;;;;;;;;;;10110292;29;20456;-89
2022/08/24 01:03:18;;;;;;;9.05;7.85;;;;;;;;;;10114348;29;20457;-90
2022/08/24 01:08:22;;;;;;;9.65;7.85;;;;;;;;;;10111404;29;20521;-89
2022/08/24 01:13:25;;;;;;;8.38;7.57;;;;;;;;;;10114065;29;20459;-90
2022/08/24 01:23:50;;;;;;;7.07;6.37;;;;;;;;;;10107038;29;20496;-88
2022/08/24 01:28:57;;;;;;;7.30;5.60;;;;;;;;;;10111817;29;20647;-90
2022/08/24 01:33:59;;;;;;;10.23;6.28;;;;;;;;;;10112671;29;20456;-90
2022/08/24 01:39:08;;;;;;;6.85;6.07;;;;;;;;;;10112373;29;20488;-89
2022/08/24 01:44:10;;;;;;;7.07;5.65;;;;;;;;;;10110858;29;20831;-89
2022/08/24 01:49:12;;;;;;;6.80;5.68;;;;;;;;;;10114796;29;20517;-89
2022/08/24 01:54:16;;;;;;;6.97;5.57;;;;;;;;;;10108852;29;20494;-90
2022/08/24 01:59:19;;;;;;;8.27;6.57;;;;;;;;;;10107997;29;20509;-90
2022/08/24 02:04:21;;;;;;;7.07;6.30;;;;;;;;;;10111420;29;20458;-90
2022/08/24 02:09:24;;;;;;;6.85;6.25;;;;;;;;;;10111511;29;20429;-90
2022/08/24 02:14:27;;;;;;;8.10;7.30;;;;;;;;;;10105264;29;20520;-89
2022/08/24 02:19:29;;;;;;;7.33;6.27;;;;;;;;;;10114352;29;20516;-89
2022/08/24 02:24:32;;;;;;;8.70;7.00;;;;;;;;;;10111533;29;20524;-90
2022/08/24 02:29:34;;;;;;;8.70;6.77;;;;;;;;;;10105403;29;20436;-89
2022/08/24 02:34:36;;;;;;;9.63;6.93;;;;;;;;;;10110839;29;20997;-89
2022/08/24 02:39:39;;;;;;;8.30;7.40;;;;;;;;;;10099622;29;20511;-89
2022/08/24 02:44:42;;;;;;;9.20;8.20;;;;;;;;;;10108310;29;20528;-90
2022/08/24 02:49:43;;;;;;;9.05;7.75;;;;;;;;;;10110234;29;20789;-90
2022/08/24 02:54:47;;;;;;;8.57;7.78;;;;;;;;;;10110508;29;20514;-90
2022/08/24 02:59:49;;;;;;;9.45;8.20;;;;;;;;;;10107387;29;20849;-90
2022/08/24 03:04:51;;;;;;;8.93;7.97;;;;;;;;;;10117496;29;20462;-90
2022/08/24 03:09:54;;;;;;;8.68;7.75;;;;;;;;;;10112412;29;20437;-89
2022/08/24 03:14:56;;;;;;;8.60;7.53;;;;;;;;;;10130235;29;20433;-89
2022/08/24 03:19:58;;;;;;;10.10;8.18;;;;;;;;;;10134072;29;20440;-89
2022/08/24 03:25:01;;;;;;;10.43;7.40;;;;;;;;;;10118357;29;20514;-89
2022/08/24 03:30:04;;;;;;;8.63;7.75;;;;;;;;;;10116323;29;20888;-90
2022/08/24 03:35:07;;;;;;;9.30;7.22;;;;;;;;;;10120925;29;20444;-89
2022/08/24 03:40:12;;;;;;;8.73;7.60;;;;;;;;;;10116891;29;20893;-89
2022/08/24 03:45:14;;;;;;;9.43;7.07;;;;;;;;;;10119864;29;20448;-88
2022/08/24 03:50:17;;;;;;;8.50;6.57;;;;;;;;;;10105524;29;20434;-89
2022/08/24 03:55:21;;;;;;;6.97;6.30;;;;;;;;;;10116493;29;20456;-90
2022/08/24 04:00:23;;;;;;;7.25;6.20;;;;;;;;;;10113490;29;20452;-89
2022/08/24 04:05:24;;;;;;;7.57;6.10;;;;;;;;;;10122141;29;20430;-89
2022/08/24 04:10:28;;;;;;;7.45;5.93;;;;;;;;;;10109542;29;20439;-89
2022/08/24 04:15:31;;;;;;;6.65;5.70;;;;;;;;;;10113054;29;20919;-90
2022/08/24 04:20:38;;;;;;;7.18;5.55;;;;;;;;;;10128176;23;20911;-89
2022/08/24 04:25:44;;;;;;;6.60;5.70;;;;;;;;;;10130917;29;20413;-89
2022/08/24 04:30:49;;;;;;;6.07;5.00;;;;;;;;;;10149793;29;20427;-89
2022/08/24 04:35:50;;;;;;;13.00;5.32;;;;;;;;;;10150278;29;20971;-88
2022/08/24 04:40:54;;;;;;;5.40;4.00;;;;;;;;;;10153525;29;20423;-89
2022/08/24 04:45:56;;;;;;;4.33;3.93;;;;;;;;;;10149690;29;20508;-89
2022/08/24 04:51:03;;;;;;;7.10;4.70;;;;;;;;;;10153467;29;20427;-88
2022/08/24 04:56:10;;;;;;;5.13;4.50;;;;;;;;;;10153118;29;20423;-87
2022/08/24 05:01:16;;;;;;;6.70;4.90;;;;;;;;;;10152525;29;20492;-88
2022/08/24 05:06:20;;;;;;;7.33;4.87;;;;;;;;;;10151974;29;20493;-88
2022/08/24 05:11:25;;;;;;;5.07;4.50;;;;;;;;;;10148455;29;20524;-88
2022/08/24 05:16:27;;;;;;;4.87;3.97;;;;;;;;;;10151505;29;20424;-88
2022/08/24 05:21:29;;;;;;;5.82;4.53;;;;;;;;;;10140315;29;20672;-88
2022/08/24 05:26:33;;;;;;;6.50;4.30;;;;;;;;;;10147465;29;20423;-88
2022/08/24 05:31:35;;;;;;;6.13;4.20;;;;;;;;;;10151009;29;20439;-88
2022/08/24 05:36:38;;;;;;;5.57;4.20;;;;;;;;;;10151228;29;20434;-88
2022/08/24 05:41:43;;;;;;;6.47;4.67;;;;;;;;;;10140882;29;20422;-88
2022/08/24 05:46:45;;;;;;;5.40;3.93;;;;;;;;;;10149537;29;20953;-88
2022/08/24 05:51:47;;;;;;;5.18;4.20;;;;;;;;;;10147448;29;20520;-87
2022/08/24 05:56:50;;;;;;;5.35;4.07;;;;;;;;;;10135749;29;20506;-88
2022/08/24 06:01:52;;;;;;;8.70;4.23;;;;;;;;;;10147829;29;20412;-87
2022/08/24 06:06:54;;;;;;;5.30;3.43;;;;;;;;;;10149865;29;20475;-88
2022/08/24 06:11:58;;;;;;;7.30;3.50;;;;;;;;;;10144959;29;20949;-87
2022/08/24 06:17:00;;;;;;;4.93;3.33;;;;;;;;;;10149173;29;20874;-88
2022/08/24 06:22:02;;;;;;;4.95;3.90;;;;;;;;;;10149499;29;20439;-88
2022/08/24 06:27:24;;;;;;;5.20;3.70;;;;;;;;;;10149313;29;20417;-87
2022/08/24 06:32:27;;;;;;;4.97;4.27;;;;;;;;;;10146620;29;20853;-88
2022/08/24 06:37:29;;;;;;;4.60;3.78;;;;;;;;;;10148580;29;20415;-88
2022/08/24 06:42:33;;;;;;;3.20;2.90;;;;;;;;;;10146155;29;20508;-88
2022/08/24 06:47:34;;;;;;;3.25;2.70;;;;;;;;;;10149102;29;20933;-88
2022/08/24 06:52:38;;;;;;;3.50;2.33;;;;;;;;;;10145107;29;20864;-88
2022/08/24 06:57:41;;;;;;;4.22;1.98;;;;;;;;;;10141596;29;20413;-88
2022/08/24 07:02:43;;;;;;;2.07;1.60;;;;;;;;;;10148544;29;20419;-88
2022/08/24 07:07:45;;;;;;;1.40;1.20;;;;;;;;;;10149279;29;20433;-88
2022/08/24 07:12:49;;;;;;;2.53;1.17;;;;;;;;;;10142928;29;20775;-88
2022/08/24 07:17:52;;;;;;;2.20;1.10;;;;;;;;;;10148559;29;20417;-88
2022/08/24 07:22:54;;;;;;;1.30;1.20;;;;;;;;;;10148096;29;20545;-88
2022/08/24 07:27:58;;;;;;;5.10;1.37;;;;;;;;;;10146646;29;20431;-88
2022/08/24 07:33:00;;;;;;;3.83;1.10;;;;;;;;;;10151902;29;20431;-87
2022/08/24 07:38:03;;;;;;;1.23;1.03;;;;;;;;;;10148108;29;20612;-88
2022/08/24 07:43:06;;;;;;;1.90;1.20;;;;;;;;;;10145290;29;20787;-88
2022/08/24 07:48:09;;;;;;;3.50;1.38;;;;;;;;;;10147112;29;20476;-88
2022/08/24 07:53:11;;;;;;;2.65;1.40;;;;;;;;;;10154822;29;20434;-89
2022/08/24 07:58:14;;;;;;;2.13;1.30;;;;;;;;;;10153879;29;20423;-89
2022/08/24 08:03:16;;;;;;;1.63;1.15;;;;;;;;;;10152252;29;20776;-89
2022/08/24 08:08:19;;;;;;;1.30;1.20;;;;;;;;;;10154991;29;20421;-89
2022/08/24 08:13:22;;;;;;;1.98;1.25;;;;;;;;;;10149899;29;20470;-89
2022/08/24 08:18:24;;;;;;;2.33;1.30;;;;;;;;;;10152916;29;20448;-88
2022/08/24 08:28:58;;;;;;;1.30;1.10;;;;;;;;;;10057234;29;20506;-89
2022/08/24 08:34:00;;;;;;;1.20;0.95;;;;;;;;;;10153544;29;20418;-89
2022/08/24 08:39:02;;;;;;;1.55;1.10;;;;;;;;;;10137729;29;20418;-87
2022/08/24 08:44:09;;;;;;;1.90;1.30;;;;;;;;;;10126129;29;20413;-86
2022/08/24 08:49:23;;;;;;;1.25;1.08;;;;;;;;;;10151521;29;20413;-86
2022/08/24 08:54:39;;;;;;;2.03;1.23;;;;;;;;;;10154529;29;20424;-86
2022/08/24 09:00:16;;;;;;;2.10;1.10;;;;;;;;;;10142587;29;20509;-87
2022/08/24 09:05:47;;;;;;;1.73;1.10;;;;;;;;;;10036073;29;20426;-87
2022/08/24 09:10:56;;;;;;;1.67;1.30;;;;;;;;;;10151728;29;20435;-87
2022/08/24 09:16:23;;;;;;;2.03;1.40;;;;;;;;;;10152965;29;20916;-87
2022/08/24 09:21:45;;;;;;;2.22;1.30;;;;;;;;;;10151010;29;20816;-87
2022/08/24 09:26:54;;;;;;;1.60;1.20;;;;;;;;;;10144933;29;20777;-87
2022/08/24 09:32:14;;;;;;;2.28;1.40;;;;;;;;;;10152741;29;20531;-87
2022/08/24 09:37:38;;;;;;;2.88;1.20;;;;;;;;;;10151356;29;20431;-87
2022/08/24 09:43:08;;;;;;;3.70;1.30;;;;;;;;;;10138583;29;20467;-87
2022/08/24 09:48:39;;;;;;;2.40;1.20;;;;;;;;;;10153063;29;20431;-87
2022/08/24 09:53:59;;;;;;;1.20;1.10;;;;;;;;;;10111182;29;20428;-87
2022/08/24 09:59:17;;;;;;;1.50;1.40;;;;;;;;;;10147705;29;20529;-87
2022/08/24 10:04:30;;;;;;;1.70;1.30;;;;;;;;;;10149536;29;20440;-87
2022/08/24 10:10:06;;;;;;;1.60;1.42;;;;;;;;;;10154343;29;20892;-87
2022/08/24 10:15:11;;;;;;;2.08;1.30;;;;;;;;;;10099160;29;20419;-87
2022/08/24 10:20:23;;;;;;;2.70;1.20;;;;;;;;;;10150436;29;21059;-87
2022/08/24 10:25:33;;;;;;;1.50;1.40;;;;;;;;;;10149703;29;20420;-89
2022/08/24 10:30:52;;;;;;;1.90;1.40;;;;;;;;;;10148951;29;20996;-89
2022/08/24 10:36:15;;;;;;;1.48;1.38;;;;;;;;;;10149063;29;20510;-89
2022/08/24 10:42:06;;;;;;;1.20;1.10;;;;;;;;;;10143959;29;20902;-89
2022/08/24 10:47:17;;;;;;;1.73;1.40;;;;;;;;;;10151062;29;20445;-89
2022/08/24 10:52:50;;;;;;;1.77;1.30;;;;;;;;;;10144882;29;20512;-88
2022/08/24 10:58:08;;;;;;;2.58;1.58;;;;;;;;;;10140630;29;20501;-89
2022/08/24 11:03:13;;;;;;;3.33;1.47;;;;;;;;;;10142619;29;20424;-89
2022/08/24 11:08:22;;;;;;;1.40;1.30;;;;;;;;;;10149798;29;20413;-89
2022/08/24 11:13:26;;;;;;;2.00;1.50;;;;;;;;;;10143768;29;20514;-88
2022/08/24 11:18:49;;;;;;;1.77;1.40;;;;;;;;;;10117113;29;20421;-89
2022/08/24 11:23:53;;;;;;;1.50;1.40;;;;;;;;;;10151099;29;20511;-89
2022/08/24 11:29:00;;;;;;;1.40;1.30;;;;;;;;;;10150040;29;20433;-89
2022/08/24 11:34:06;;;;;;;1.40;1.30;;;;;;;;;;10157030;29;20443;-89
2022/08/24 11:39:19;;;;;;;1.98;1.45;;;;;;;;;;10152879;29;20749;-89
2022/08/24 11:44:35;;;;;;;1.53;1.30;;;;;;;;;;10156951;29;20474;-89
2022/08/24 11:49:47;;;;;;;1.83;1.40;;;;;;;;;;10160817;29;20514;-89
2022/08/24 11:54:59;;;;;;;2.80;1.50;;;;;;;;;;10154325;29;20853;-89
2022/08/24 12:00:09;;;;;;;1.83;1.33;;;;;;;;;;10152939;29;20433;-89
2022/08/24 12:05:23;;;;;;;1.52;1.30;;;;;;;;;;10152800;29;20456;-89
2022/08/24 12:10:38;;;;;;;1.63;1.48;;;;;;;;;;10155800;29;20935;-89
2022/08/24 12:15:45;;;;;;;1.73;1.27;;;;;;;;;;10149549;29;20421;-88
2022/08/24 12:20:49;;;;;;;2.50;1.40;;;;;;;;;;10142865;29;20442;-89
2022/08/24 12:26:02;;;;;;;2.05;1.40;;;;;;;;;;10152123;29;20875;-90
2022/08/24 12:31:11;;;;;;;2.00;1.40;;;;;;;;;;10152321;29;20429;-89
2022/08/24 12:36:21;;;;;;;1.40;1.20;;;;;;;;;;10151916;29;20419;-89
2022/08/24 12:41:29;;;;;;;1.90;1.37;;;;;;;;;;10154363;29;20432;-89
2022/08/24 12:46:31;;;;;;;2.40;1.40;;;;;;;;;;10155496;29;20572;-89
2022/08/24 12:51:50;;;;;;;4.00;1.23;;;;;;;;;;10153489;29;20923;-89
2022/08/24 12:57:13;;;;;;;1.40;1.30;;;;;;;;;;10142446;29;20432;-89
2022/08/24 13:02:32;;;;;;;1.40;1.30;;;;;;;;;;10151334;29;20486;-89
2022/08/24 13:07:40;;;;;;;1.83;1.40;;;;;;;;;;10153613;29;20500;-87
2022/08/24 13:13:18;;;;;;;3.45;1.40;;;;;;;;;;10142296;29;20489;-87
2022/08/24 13:18:49;;;;;;;2.08;1.30;;;;;;;;;;10151166;29;20412;-87
2022/08/24 13:24:50;;;;;;;1.90;1.20;;;;;;;;;;10147214;29;20473;-87
2022/08/24 13:30:05;;;;;;;1.83;1.23;;;;;;;;;;10148960;29;20425;-88
2022/08/24 13:35:52;;;;;;;1.63;1.40;;;;;;;;;;10152798;29;20484;-86
2022/08/24 13:41:04;;;;;;;2.03;1.30;;;;;;;;;;10150868;29;20416;-87
2022/08/24 13:46:18;;;;;;;1.83;1.17;;;;;;;;;;10151077;29;20432;-88
2022/08/24 13:51:34;;;;;;;3.30;1.30;;;;;;;;;;10146547;29;20522;-87
2022/08/24 13:56:55;;;;;;;2.38;1.77;;;;;;;;;;10150629;29;20509;-88
2022/08/24 14:02:07;;;;;;;2.00;1.20;;;;;;;;;;10150525;29;20474;-88
2022/08/24 14:07:14;;;;;;;2.13;1.30;;;;;;;;;;10151420;29;20519;-88
2022/08/24 14:12:39;;;;;;;1.48;1.35;;;;;;;;;;10133377;29;20439;-88
2022/08/24 14:17:52;;;;;;;1.42;1.20;;;;;;;;;;10151500;29;20863;-88
2022/08/24 14:23:02;;;;;;;1.48;1.30;;;;;;;;;;10151417;29;20449;-88
2022/08/24 14:28:34;;;;;;;1.80;1.30;;;;;;;;;;10153514;29;20425;-88
2022/08/24 14:33:57;;;;;;;1.40;1.30;;;;;;;;;;10150534;29;20451;-88
2022/08/24 14:39:07;;;;;;;2.10;1.10;;;;;;;;;;10149703;29;20444;-88
2022/08/24 14:44:20;;;;;;;2.43;1.30;;;;;;;;;;10149235;29;20415;-88
2022/08/24 14:49:33;;;;;;;1.63;1.27;;;;;;;;;;10149433;29;20428;-88
2022/08/24 14:54:55;;;;;;;2.20;1.27;;;;;;;;;;10150857;29;20431;-88
2022/08/24 15:00:08;;;;;;;2.28;1.13;;;;;;;;;;10151576;29;20424;-88
2022/08/24 15:05:21;;;;;;;2.47;1.20;;;;;;;;;;10158964;29;20419;-88
2022/08/24 15:10:27;;;;;;;1.80;1.15;;;;;;;;;;10160434;29;20419;-87
2022/08/24 15:15:33;;;;;;;1.50;1.40;;;;;;;;;;10156087;29;20509;-87
2022/08/24 15:20:53;;;;;;;1.45;1.00;;;;;;;;;;10154208;29;20425;-88
2022/08/24 15:25:59;;;;;;;1.77;1.20;;;;;;;;;;10158475;29;20488;-88
2022/08/24 15:31:05;;;;;;;2.05;1.10;;;;;;;;;;10155453;29;20459;-88
2022/08/24 15:36:12;;;;;;;1.45;1.23;;;;;;;;;;10153679;29;20774;-88
2022/08/24 15:41:17;;;;;;;1.30;1.20;;;;;;;;;;10155604;29;20536;-88
2022/08/24 15:46:21;;;;;;;1.30;1.20;;;;;;;;;;10156450;29;20449;-89
2022/08/24 15:51:36;;;;;;;1.27;1.10;;;;;;;;;;10154647;29;20464;-88
2022/08/24 15:56:45;;;;;;;1.80;1.00;;;;;;;;;;10154803;29;20504;-88
2022/08/24 16:07:24;;;;;;;1.58;1.20;;;;;;;;;;10149747;29;20406;-88
2022/08/24 16:12:27;;;;;;;1.67;1.30;;;;;;;;;;10153617;29;20486;-88
2022/08/24 16:17:34;;;;;;;1.67;1.20;;;;;;;;;;10156249;29;20513;-88
2022/08/24 16:22:40;;;;;;;1.65;1.08;;;;;;;;;;10126843;24;20873;-90
2022/08/24 16:28:06;;;;;;;1.52;1.15;;;;;;;;;;10067523;29;20489;-90
2022/08/24 16:33:08;;;;;;;1.50;1.30;;;;;;;;;;10075252;29;20473;-90
2022/08/24 16:38:12;;;;;;;1.30;1.20;;;;;;;;;;10069700;29;20502;-90
2022/08/24 16:43:14;;;;;;;1.50;1.30;;;;;;;;;;10072582;29;20424;-90
2022/08/24 16:48:16;;;;;;;1.30;1.20;;;;;;;;;;10078341;29;20522;-90
2022/08/24 16:53:19;;;;;;;1.10;1.00;;;;;;;;;;10074928;29;21003;-90
2022/08/24 16:58:24;;;;;;;1.65;1.35;;;;;;;;;;10075418;29;20975;-90
2022/08/24 17:03:26;;;;;;;3.05;1.45;;;;;;;;;;10076880;29;20420;-89
2022/08/24 17:08:30;;;;;;;2.23;1.43;;;;;;;;;;10078546;29;20751;-90
2022/08/24 17:13:32;;;;;;;1.50;1.40;;;;;;;;;;10069702;29;20863;-90
2022/08/24 17:18:34;;;;;;;1.98;1.50;;;;;;;;;;10077799;29;20553;-90
2022/08/24 17:23:38;;;;;;;1.67;1.20;;;;;;;;;;10073200;29;21034;-90
2022/08/24 17:28:43;;;;;;;2.90;2.30;;;;;;;;;;10065315;29;20468;-89
2022/08/24 17:33:45;;;;;;;2.25;1.15;;;;;;;;;;10073491;29;20851;-90
2022/08/24 17:38:52;;;;;;;2.53;1.10;;;;;;;;;;10070345;29;20460;-90
2022/08/24 17:43:55;;;;;;;2.03;1.30;;;;;;;;;;10070579;29;20492;-90
2022/08/24 17:48:58;;;;;;;1.58;1.35;;;;;;;;;;10077025;29;20415;-90
2022/08/24 17:54:01;;;;;;;3.97;1.52;;;;;;;;;;10074126;29;20448;-90
2022/08/24 17:59:22;;;;;;;2.20;1.70;;;;;;;;;;10070838;29;20503;-89
2022/08/24 18:04:26;;;;;;;3.13;2.00;;;;;;;;;;10071174;29;20423;-90
2022/08/24 18:09:31;;;;;;;3.15;2.80;;;;;;;;;;10071845;29;20508;-90
2022/08/24 18:14:34;;;;;;;3.60;2.47;;;;;;;;;;10066686;29;20921;-90
2022/08/24 18:19:37;;;;;;;2.73;1.60;;;;;;;;;;10072314;29;20428;-90
2022/08/24 18:24:41;;;;;;;2.38;1.80;;;;;;;;;;10072569;29;20437;-89
2022/08/24 18:29:44;;;;;;;4.88;2.30;;;;;;;;;;10064890;29;20431;-90
2022/08/24 18:34:46;;;;;;;3.33;1.90;;;;;;;;;;10071028;29;20477;-90
2022/08/24 18:39:49;;;;;;;2.13;1.73;;;;;;;;;;10072829;29;20484;-90
2022/08/24 18:44:51;;;;;;;3.35;1.60;;;;;;;;;;10073422;29;20496;-89
2022/08/24 18:49:53;;;;;;;2.15;1.95;;;;;;;;;;10072059;29;20425;-89
2022/08/24 18:54:56;;;;;;;3.53;2.10;;;;;;;;;;10067525;29;20523;-90
2022/08/24 18:59:58;;;;;;;4.53;3.35;;;;;;;;;;10070997;29;20451;-90
2022/08/24 19:05:05;;;;;;;4.28;3.40;;;;;;;;;;10067541;29;20451;-90
2022/08/24 19:10:10;;;;;;;5.10;3.20;;;;;;;;;;10067478;29;20501;-90
2022/08/24 19:15:12;;;;;;;4.30;3.08;;;;;;;;;;10061053;29;20988;-89
2022/08/24 19:20:15;;;;;;;5.68;3.20;;;;;;;;;;10071419;29;20508;-90
2022/08/24 19:25:22;;;;;;;4.53;3.38;;;;;;;;;;10069876;29;20428;-90
2022/08/24 19:30:26;;;;;;;5.57;3.20;;;;;;;;;;10071453;29;20420;-90
2022/08/24 19:35:30;;;;;;;4.30;3.20;;;;;;;;;;10071035;29;20436;-90
2022/08/24 19:40:34;;;;;;;5.05;3.30;;;;;;;;;;10070843;29;20522;-89
2022/08/24 19:50:55;;;;;;;5.28;3.30;;;;;;;;;;10086418;29;20895;-89
2022/08/24 19:55:59;;;;;;;4.50;3.17;;;;;;;;;;10078761;29;20469;-90
2022/08/24 20:01:04;;;;;;;7.05;3.50;;;;;;;;;;10074662;29;20961;-90
2022/08/24 20:06:06;;;;;;;6.30;3.35;;;;;;;;;;10077557;29;20499;-90
2022/08/24 20:11:10;;;;;;;5.65;3.25;;;;;;;;;;10076886;29;20507;-88
2022/08/24 20:16:14;;;;;;;3.20;2.90;;;;;;;;;;10073246;29;20439;-89
2022/08/24 20:21:16;;;;;;;4.63;3.05;;;;;;;;;;10077588;29;20506;-90
2022/08/24 20:26:21;;;;;;;5.65;2.90;;;;;;;;;;10060389;29;20977;-89
2022/08/24 20:31:23;;;;;;;4.85;3.10;;;;;;;;;;10113535;29;20433;-89
2022/08/24 20:36:27;;;;;;;4.47;2.92;;;;;;;;;;10074420;29;20429;-89
2022/08/24 20:41:31;;;;;;;3.50;2.72;;;;;;;;;;10074146;29;20463;-90
2022/08/24 20:46:33;;;;;;;3.30;2.47;;;;;;;;;;10078898;29;20469;-89
2022/08/24 20:51:35;;;;;;;3.88;2.70;;;;;;;;;;10076010;29;20422;-90
2022/08/24 20:56:38;;;;;;;3.53;3.00;;;;;;;;;;10069193;29;20538;-90
2022/08/24 21:01:41;;;;;;;4.40;3.20;;;;;;;;;;10071797;29;20826;-90
2022/08/24 21:06:44;;;;;;;4.55;3.25;;;;;;;;;;10074527;29;20453;-90
2022/08/24 21:11:47;;;;;;;3.88;3.20;;;;;;;;;;10072193;29;20515;-90
2022/08/24 21:16:49;;;;;;;4.43;3.37;;;;;;;;;;10078492;29;20452;-90
2022/08/24 21:21:54;;;;;;;5.53;3.72;;;;;;;;;;10076627;29;20431;-90
2022/08/24 21:26:58;;;;;;;5.43;3.60;;;;;;;;;;10073756;29;20419;-89
2022/08/24 21:37:19;;;;;;;4.70;3.50;;;;;;;;;;10077341;29;20535;-90
2022/08/24 21:42:23;;;;;;;4.77;3.43;;;;;;;;;;10069411;29;20969;-89
2022/08/24 21:47:25;;;;;;;5.18;3.72;;;;;;;;;;10075794;29;20782;-90
2022/08/24 21:52:27;;;;;;;4.43;3.67;;;;;;;;;;10073659;29;20523;-90
2022/08/24 21:57:30;;;;;;;5.70;4.10;;;;;;;;;;10069964;29;20465;-90
2022/08/24 22:02:32;;;;;;;5.28;4.30;;;;;;;;;;10072930;29;20546;-90
2022/08/24 22:07:34;;;;;;;4.30;3.90;;;;;;;;;;10069012;29;20456;-89
2022/08/24 22:12:38;;;;;;;4.90;3.80;;;;;;;;;;10071842;29;20436;-90
2022/08/24 22:17:40;;;;;;;4.25;3.85;;;;;;;;;;10069608;29;20522;-89
2022/08/24 22:22:44;;;;;;;5.13;3.90;;;;;;;;;;10072524;29;20455;-89
2022/08/24 22:27:48;;;;;;;4.45;4.03;;;;;;;;;;10062670;29;20520;-90
2022/08/24 22:32:50;;;;;;;5.15;4.30;;;;;;;;;;10071091;29;20977;-90
2022/08/24 22:37:52;;;;;;;5.10;4.60;;;;;;;;;;10072347;29;20506;-90
2022/08/24 22:42:55;;;;;;;5.43;4.40;;;;;;;;;;10066828;29;20464;-90
2022/08/24 22:47:58;;;;;;;4.70;4.30;;;;;;;;;;10072349;29;20417;-90
2022/08/24 22:53:00;;;;;;;5.03;4.40;;;;;;;;;;10069386;29;20528;-90
2022/08/24 22:58:03;;;;;;;6.00;5.20;;;;;;;;;;10061418;29;21156;-90
2022/08/24 23:03:05;;;;;;;7.10;5.13;;;;;;;;;;10068485;29;20960;-89
2022/08/24 23:08:07;;;;;;;7.70;5.30;;;;;;;;;;10072109;29;20463;-89
2022/08/24 23:13:10;;;;;;;8.67;5.90;;;;;;;;;;10073837;29;20462;-90
2022/08/24 23:23:28;;;;;;;5.90;5.30;;;;;;;;;;10078437;29;20426;-90
2022/08/24 23:28:31;;;;;;;5.63;4.95;;;;;;;;;;10071101;29;20546;-89
2022/08/24 23:33:33;;;;;;;5.45;4.72;;;;;;;;;;10080378;29;20432;-89
2022/08/24 23:38:36;;;;;;;5.03;4.53;;;;;;;;;;10085365;29;20927;-89
2022/08/24 23:43:41;;;;;;;5.23;4.60;;;;;;;;;;10073265;29;20763;-90
2022/08/24 23:48:43;;;;;;;5.05;4.60;;;;;;;;;;10079940;29;20459;-89
2022/08/24 23:53:47;;;;;;;5.13;4.63;;;;;;;;;;10076670;29;20434;-89
2022/08/24 23:58:52;;;;;;;4.80;4.40;;;;;;;;;;10066494;29;20958;-88
